createdAt,value
2017-12-15T00:01:54.868Z,98610.27
2017-12-15T00:04:23.612Z,98600.53
2017-12-15T00:06:51.964Z,98605.36
2017-12-15T00:09:20.301Z,98602.59
2017-12-15T00:11:48.843Z,98603.12
2017-12-15T00:14:17.180Z,98614.13
2017-12-15T00:16:46.018Z,98606.07
2017-12-15T00:19:14.360Z,98612.14
2017-12-15T00:21:42.716Z,98617.29
2017-12-15T00:24:11.461Z,98610.10
2017-12-15T00:26:39.809Z,98620.15
2017-12-15T00:29:09.752Z,98614.05
2017-12-15T00:31:38.104Z,98612.06
2017-12-15T00:34:06.443Z,98607.50
2017-12-15T00:36:34.792Z,98615.85
2017-12-15T00:39:03.169Z,98613.92
2017-12-15T00:41:31.543Z,98608.55
2017-12-15T00:43:59.925Z,98605.49
2017-12-15T00:46:28.304Z,98610.27
2017-12-15T00:48:56.662Z,98606.67
2017-12-15T00:51:25.009Z,98603.14
2017-12-15T00:53:53.849Z,98604.55
2017-12-15T00:56:22.212Z,98604.11
2017-12-15T00:58:50.608Z,98602.99
2017-12-15T01:01:18.976Z,98595.19
2017-12-15T01:03:47.326Z,98597.77
2017-12-15T01:06:15.670Z,98599.13
2017-12-15T01:08:44.136Z,98593.69
2017-12-15T01:11:12.509Z,98600.68
2017-12-15T01:13:40.897Z,98593.98
2017-12-15T01:16:09.259Z,98603.16
2017-12-15T01:18:37.587Z,98614.33
2017-12-15T01:21:06.420Z,98608.65
2017-12-15T01:23:34.772Z,98610.55
2017-12-15T01:26:03.175Z,98614.22
2017-12-15T01:28:31.512Z,98613.70
2017-12-15T01:31:00.259Z,98611.67
2017-12-15T01:33:28.604Z,98619.23
2017-12-15T01:35:56.956Z,98619.47
2017-12-15T01:38:25.799Z,98619.81
2017-12-15T01:40:54.201Z,98615.56
2017-12-15T01:43:22.549Z,98622.31
2017-12-15T01:45:50.905Z,98621.19
2017-12-15T01:48:19.252Z,98616.78
2017-12-15T01:50:48.029Z,98611.01
2017-12-15T01:53:16.355Z,98605.92
2017-12-15T01:55:44.753Z,98606.56
2017-12-15T01:58:13.105Z,98595.41
2017-12-15T02:00:41.511Z,98592.34
2017-12-15T02:03:09.863Z,98590.78
2017-12-15T02:05:38.204Z,98588.77
2017-12-15T02:08:06.566Z,98583.61
2017-12-15T02:10:34.936Z,98585.14
2017-12-15T02:13:03.272Z,98591.13
2017-12-15T02:15:31.623Z,98592.98
2017-12-15T02:17:59.975Z,98596.44
2017-12-15T02:20:28.452Z,98597.38
2017-12-15T02:22:56.819Z,98596.90
2017-12-15T02:25:25.164Z,98600.31
2017-12-15T02:27:53.516Z,98595.41
2017-12-15T02:30:21.970Z,98599.25
2017-12-15T02:32:50.337Z,98600.35
2017-12-15T02:35:18.818Z,98607.20
2017-12-15T02:37:47.157Z,98602.52
2017-12-15T02:40:15.524Z,98596.45
2017-12-15T02:42:43.889Z,98601.77
2017-12-15T02:45:12.693Z,98594.39
2017-12-15T02:47:41.426Z,98597.38
2017-12-15T02:50:09.880Z,98597.17
2017-12-15T02:52:38.222Z,98592.05
2017-12-15T02:55:06.973Z,98588.59
2017-12-15T02:57:35.384Z,98592.97
2017-12-15T03:00:03.713Z,98592.95
2017-12-15T03:02:32.051Z,98594.14
2017-12-15T03:05:00.896Z,98589.98
2017-12-15T03:07:29.274Z,98592.38
2017-12-15T03:09:57.656Z,98595.41
2017-12-15T03:12:26.006Z,98600.69
2017-12-15T03:14:54.348Z,98595.94
2017-12-15T03:17:22.704Z,98600.45
2017-12-15T03:19:51.939Z,98601.90
2017-12-15T03:22:20.708Z,98598.81
2017-12-15T03:24:49.153Z,98597.11
2017-12-15T03:27:17.543Z,98597.86
2017-12-15T03:29:45.910Z,98599.82
2017-12-15T03:32:14.259Z,98604.13
2017-12-15T03:34:42.850Z,98601.91
2017-12-15T03:37:11.272Z,98590.29
2017-12-15T03:39:39.632Z,98590.77
2017-12-15T03:42:07.992Z,98581.81
2017-12-15T03:44:36.328Z,98587.80
2017-12-15T03:47:05.077Z,98588.89
2017-12-15T03:49:33.471Z,98581.41
2017-12-15T03:52:01.827Z,98587.35
2017-12-15T03:54:30.168Z,98583.28
2017-12-15T03:56:58.586Z,98586.20
2017-12-15T03:59:26.928Z,98596.06
2017-12-15T04:01:55.344Z,98587.20
2017-12-15T04:04:23.701Z,98592.48
2017-12-15T04:06:52.040Z,98595.37
2017-12-15T04:09:20.399Z,98589.94
2017-12-15T04:11:48.854Z,98591.92
2017-12-15T04:14:17.195Z,98578.91
2017-12-15T04:16:45.535Z,98585.53
2017-12-15T04:19:13.993Z,98583.03
2017-12-15T04:21:42.369Z,98584.64
2017-12-15T04:24:10.703Z,98584.63
2017-12-15T04:26:39.457Z,98591.55
2017-12-15T04:29:07.796Z,98589.93
2017-12-15T04:31:36.148Z,98582.03
2017-12-15T04:34:04.995Z,98577.73
2017-12-15T04:36:33.336Z,98576.37
2017-12-15T04:39:01.759Z,98570.00
2017-12-15T04:41:30.536Z,98576.23
2017-12-15T04:43:58.913Z,98573.09
2017-12-15T04:46:27.264Z,98570.19
2017-12-15T04:48:55.672Z,98577.79
2017-12-15T04:51:24.044Z,98580.92
2017-12-15T04:53:52.388Z,98573.51
2017-12-15T04:56:20.766Z,98577.13
2017-12-15T04:58:49.282Z,98582.75
2017-12-15T05:01:17.628Z,98581.07
2017-12-15T05:03:45.984Z,98588.15
2017-12-15T05:06:14.717Z,98589.82
2017-12-15T05:08:43.620Z,98587.66
2017-12-15T05:11:12.508Z,98583.58
2017-12-15T05:13:40.884Z,98585.99
2017-12-15T05:16:09.232Z,98586.92
2017-12-15T05:18:37.596Z,98579.11
2017-12-15T05:21:06.440Z,98581.84
2017-12-15T05:23:34.782Z,98593.00
2017-12-15T05:26:03.142Z,98581.50
2017-12-15T05:28:31.567Z,98584.02
2017-12-15T05:30:59.903Z,98595.27
2017-12-15T05:33:28.832Z,98585.84
2017-12-15T05:35:57.178Z,98580.36
2017-12-15T05:38:25.605Z,98591.37
2017-12-15T05:40:54.045Z,98595.68
2017-12-15T05:43:22.561Z,98589.17
2017-12-15T05:45:50.900Z,98595.00
2017-12-15T05:48:19.320Z,98607.58
2017-12-15T05:50:47.706Z,98604.52
2017-12-15T05:53:16.079Z,98599.20
2017-12-15T05:55:44.448Z,98602.47
2017-12-15T05:58:12.795Z,98592.28
2017-12-15T06:00:41.217Z,98596.13
2017-12-15T06:03:09.697Z,98602.65
2017-12-15T06:05:38.039Z,98600.08
2017-12-15T06:08:06.373Z,98600.52
2017-12-15T06:10:35.038Z,98600.81
2017-12-15T06:13:03.392Z,98611.23
2017-12-15T06:15:31.731Z,98624.42
2017-12-15T06:18:00.494Z,98618.44
2017-12-15T06:20:28.873Z,98624.55
2017-12-15T06:22:57.276Z,98628.23
2017-12-15T06:25:26.429Z,98625.58
2017-12-15T06:27:54.783Z,98620.64
2017-12-15T06:30:23.194Z,98620.47
2017-12-15T06:32:51.568Z,98621.63
2017-12-15T06:35:19.943Z,98626.05
2017-12-15T06:37:48.319Z,98633.20
2017-12-15T06:40:16.680Z,98629.09
2017-12-15T06:42:45.060Z,98634.28
2017-12-15T06:45:13.452Z,98630.47
2017-12-15T06:47:41.867Z,98630.41
2017-12-15T06:50:10.201Z,98631.00
2017-12-15T06:52:38.540Z,98624.77
2017-12-15T06:55:07.396Z,98628.63
2017-12-15T06:57:35.741Z,98634.79
2017-12-15T07:00:04.080Z,98652.99
2017-12-15T07:02:32.476Z,98651.28
2017-12-15T07:05:01.316Z,98650.45
2017-12-15T07:07:29.647Z,98652.65
2017-12-15T07:09:58.004Z,98652.74
2017-12-15T07:12:26.444Z,98661.03
2017-12-15T07:14:54.800Z,98665.38
2017-12-15T07:17:23.212Z,98666.80
2017-12-15T07:19:51.567Z,98671.90
2017-12-15T07:22:19.960Z,98683.50
2017-12-15T07:24:48.355Z,98671.27
2017-12-15T07:27:16.697Z,98661.66
2017-12-15T07:29:45.028Z,98663.55
2017-12-15T07:32:13.391Z,98659.71
2017-12-15T07:34:41.738Z,98665.90
2017-12-15T07:37:10.124Z,98669.65
2017-12-15T07:39:38.476Z,98667.20
2017-12-15T07:42:06.817Z,98673.20
2017-12-15T07:44:35.876Z,98675.32
2017-12-15T07:47:04.275Z,98676.13
2017-12-15T07:49:32.655Z,98678.46
2017-12-15T07:52:01.008Z,98676.05
2017-12-15T07:54:29.382Z,98685.14
2017-12-15T07:56:57.880Z,98687.41
2017-12-15T07:59:26.212Z,98689.58
2017-12-15T08:01:54.960Z,98690.06
2017-12-15T08:04:23.320Z,98690.42
2017-12-15T08:06:51.702Z,98691.46
2017-12-15T08:09:20.067Z,98695.56
2017-12-15T08:11:48.461Z,98688.39
2017-12-15T08:14:16.806Z,98697.60
2017-12-15T08:16:45.156Z,98689.14
2017-12-15T08:21:52.463Z,98692.48
2017-12-15T08:24:20.963Z,98700.26
2017-12-15T08:26:49.303Z,98703.02
2017-12-15T08:29:17.767Z,98698.74
2017-12-15T08:31:46.113Z,98708.89
2017-12-15T08:34:14.569Z,98717.89
2017-12-15T08:36:43.337Z,98721.06
2017-12-15T08:39:11.676Z,98717.09
2017-12-15T08:41:40.058Z,98717.33
2017-12-15T08:44:08.417Z,98723.84
2017-12-15T08:46:36.758Z,98729.16
2017-12-15T08:49:05.261Z,98732.67
2017-12-15T08:51:33.629Z,98735.22
2017-12-15T08:54:02.036Z,98744.59
2017-12-15T08:56:30.440Z,98753.97
2017-12-15T08:58:58.805Z,98758.55
2017-12-15T09:01:28.065Z,98754.09
2017-12-15T09:04:02.329Z,98762.28
2017-12-15T09:06:30.672Z,98766.56
2017-12-15T09:08:59.018Z,98758.43
2017-12-15T09:11:27.478Z,98765.28
2017-12-15T09:13:56.532Z,98770.64
2017-12-15T09:16:24.952Z,98777.91
2017-12-15T09:18:53.428Z,98779.95
2017-12-15T09:21:21.781Z,98783.27
2017-12-15T09:23:50.130Z,98779.36
2017-12-15T09:26:18.556Z,98782.07
2017-12-15T09:28:46.941Z,98785.03
2017-12-15T09:31:15.292Z,98791.02
2017-12-15T09:33:43.697Z,98791.36
2017-12-15T09:36:12.102Z,98790.64
2017-12-15T09:38:40.584Z,98796.02
2017-12-15T09:41:08.956Z,98796.31
2017-12-15T09:43:37.354Z,98793.04
2017-12-15T09:46:05.797Z,98798.42
2017-12-15T09:48:34.174Z,98799.78
2017-12-15T09:51:02.560Z,98795.98
2017-12-15T09:53:31.037Z,98798.81
2017-12-15T09:55:59.428Z,98796.81
2017-12-15T09:58:27.826Z,98799.44
2017-12-15T10:00:56.584Z,98796.44
2017-12-15T10:03:24.961Z,98807.41
2017-12-15T10:05:54.169Z,98808.16
2017-12-15T10:08:22.522Z,98815.72
2017-12-15T10:10:50.908Z,98816.55
2017-12-15T10:13:19.265Z,98819.25
2017-12-15T10:15:47.676Z,98819.66
2017-12-15T10:18:16.049Z,98816.80
2017-12-15T10:20:44.424Z,98816.45
2017-12-15T10:23:12.811Z,98826.93
2017-12-15T10:25:41.183Z,98829.79
2017-12-15T10:28:09.573Z,98826.66
2017-12-15T10:30:37.916Z,98823.70
2017-12-15T10:33:06.316Z,98822.61
2017-12-15T10:35:34.666Z,98820.80
2017-12-15T10:38:03.096Z,98821.45
2017-12-15T10:40:31.556Z,98828.02
2017-12-15T10:42:59.948Z,98831.55
2017-12-15T10:45:28.321Z,98829.59
2017-12-15T10:47:56.691Z,98834.28
2017-12-15T10:50:25.098Z,98840.36
2017-12-15T10:52:53.460Z,98838.27
2017-12-15T10:55:21.860Z,98836.48
2017-12-15T10:57:50.221Z,98834.40
2017-12-15T11:00:18.564Z,98834.16
2017-12-15T11:02:47.002Z,98842.27
2017-12-15T11:05:15.448Z,98844.64
2017-12-15T11:07:43.797Z,98845.73
2017-12-15T11:10:12.166Z,98847.20
2017-12-15T11:12:41.075Z,98855.09
2017-12-15T11:15:09.429Z,98868.07
2017-12-15T11:17:38.204Z,98861.98
2017-12-15T11:20:06.958Z,98865.64
2017-12-15T11:22:35.329Z,98861.42
2017-12-15T11:25:03.708Z,98871.81
2017-12-15T11:27:32.054Z,98876.26
2017-12-15T11:30:00.467Z,98875.05
2017-12-15T11:32:28.845Z,98885.75
2017-12-15T11:34:57.328Z,98882.25
2017-12-15T11:37:25.681Z,98881.39
2017-12-15T11:39:54.094Z,98883.23
2017-12-15T11:42:22.449Z,98889.38
2017-12-15T11:44:50.940Z,98893.37
2017-12-15T11:47:19.325Z,98895.59
2017-12-15T11:49:47.681Z,98889.41
2017-12-15T11:52:16.034Z,98890.34
2017-12-15T11:54:45.172Z,98898.14
2017-12-15T11:57:13.541Z,98901.17
2017-12-15T11:59:42.049Z,98910.27
2017-12-15T12:02:10.504Z,98909.12
2017-12-15T12:04:38.857Z,98917.32
2017-12-15T12:07:07.280Z,98915.33
2017-12-15T12:09:35.659Z,98913.13
2017-12-15T12:12:04.002Z,98917.20
2017-12-15T12:14:32.370Z,98918.09
2017-12-15T12:17:00.796Z,98922.27
2017-12-15T12:19:29.153Z,98927.03
2017-12-15T12:21:57.509Z,98928.38
2017-12-15T12:24:25.882Z,98930.12
2017-12-15T12:26:54.411Z,98929.04
2017-12-15T12:29:22.761Z,98938.41
2017-12-15T12:31:51.128Z,98938.94
2017-12-15T12:34:19.553Z,98937.84
2017-12-15T12:36:47.897Z,98953.00
2017-12-15T12:39:16.268Z,98948.03
2017-12-15T12:41:44.618Z,98959.64
2017-12-15T12:44:13.857Z,98959.06
2017-12-15T12:46:42.260Z,98957.04
2017-12-15T12:49:10.596Z,98964.24
2017-12-15T12:51:38.933Z,98960.49
2017-12-15T12:54:07.393Z,98963.52
2017-12-15T12:56:35.736Z,98973.02
2017-12-15T12:59:04.099Z,98974.02
2017-12-15T13:01:32.915Z,98972.61
2017-12-15T13:04:01.248Z,98985.16
2017-12-15T13:06:29.583Z,98988.79
2017-12-15T13:08:57.993Z,98988.50
2017-12-15T13:11:26.313Z,98987.44
2017-12-15T13:13:54.661Z,98994.61
2017-12-15T13:16:23.020Z,98992.20
2017-12-15T13:18:51.375Z,98998.90
2017-12-15T13:21:19.769Z,98995.46
2017-12-15T13:23:48.140Z,99001.98
2017-12-15T13:26:16.531Z,98998.39
2017-12-15T13:28:44.868Z,98996.16
2017-12-15T13:31:13.235Z,98998.81
2017-12-15T13:33:41.981Z,99004.91
2017-12-15T13:36:10.328Z,99008.84
2017-12-15T13:38:38.736Z,99020.30
2017-12-15T13:41:07.087Z,99016.48
2017-12-15T13:43:35.436Z,99017.82
2017-12-15T13:46:04.192Z,99032.61
2017-12-15T13:48:32.547Z,99033.42
2017-12-15T13:51:00.919Z,99028.21
2017-12-15T13:53:29.294Z,99033.72
2017-12-15T13:55:57.726Z,99038.81
2017-12-15T13:58:26.471Z,99046.31
2017-12-15T14:00:54.842Z,99048.70
2017-12-15T14:03:23.256Z,99055.53
2017-12-15T14:05:51.713Z,99049.45
2017-12-15T14:08:20.081Z,99056.72
2017-12-15T14:10:48.471Z,99062.71
2017-12-15T14:13:16.820Z,99068.75
2017-12-15T14:15:45.185Z,99075.01
2017-12-15T14:18:13.913Z,99075.49
2017-12-15T14:20:42.288Z,99075.37
2017-12-15T14:23:11.121Z,99086.07
2017-12-15T14:25:39.970Z,99090.85
2017-12-15T14:28:09.321Z,99089.76
2017-12-15T14:30:38.153Z,99089.21
2017-12-15T14:33:06.491Z,99095.20
2017-12-15T14:35:35.321Z,99089.80
2017-12-15T14:38:03.695Z,99104.88
2017-12-15T14:40:32.077Z,99095.81
2017-12-15T14:43:00.420Z,99104.92
2017-12-15T14:45:28.800Z,99109.81
2017-12-15T14:47:57.187Z,99114.84
2017-12-15T14:50:25.556Z,99120.53
2017-12-15T14:52:54.056Z,99127.91
2017-12-15T14:55:22.425Z,99124.47
2017-12-15T14:57:50.771Z,99121.80
2017-12-15T15:00:19.225Z,99124.80
2017-12-15T15:02:47.577Z,99125.07
2017-12-15T15:05:15.934Z,99130.86
2017-12-15T15:07:44.354Z,99128.55
2017-12-15T15:10:12.747Z,99132.80
2017-12-15T15:12:41.151Z,99128.92
2017-12-15T15:15:09.923Z,99132.33
2017-12-15T15:17:38.492Z,99136.14
2017-12-15T15:20:06.831Z,99141.22
2017-12-15T15:22:35.243Z,99138.69
2017-12-15T15:25:03.599Z,99142.17
2017-12-15T15:27:31.944Z,99137.28
2017-12-15T15:30:00.715Z,99144.55
2017-12-15T15:32:29.069Z,99142.86
2017-12-15T15:34:57.437Z,99151.34
2017-12-15T15:37:25.822Z,99150.06
2017-12-15T15:39:54.176Z,99150.14
2017-12-15T15:42:22.525Z,99151.89
2017-12-15T15:44:50.953Z,99155.92
2017-12-15T15:47:19.317Z,99157.01
2017-12-15T15:49:47.696Z,99160.47
2017-12-15T15:52:16.284Z,99159.96
2017-12-15T15:54:44.632Z,99167.82
2017-12-15T15:57:13.049Z,99169.96
2017-12-15T15:59:41.745Z,99176.92
2017-12-15T16:02:10.101Z,99176.10
2017-12-15T16:04:38.505Z,99177.52
2017-12-15T16:07:06.973Z,99179.13
2017-12-15T16:09:35.317Z,99184.53
2017-12-15T16:12:03.737Z,99178.05
2017-12-15T16:14:32.137Z,99179.79
2017-12-15T16:17:00.600Z,99184.44
2017-12-15T16:19:28.964Z,99185.63
2017-12-15T16:21:57.328Z,99186.73
2017-12-15T16:24:25.685Z,99183.29
2017-12-15T16:26:54.450Z,99192.31
2017-12-15T16:29:22.829Z,99192.11
2017-12-15T16:31:51.281Z,99191.99
2017-12-15T16:34:19.633Z,99194.15
2017-12-15T16:36:48.124Z,99204.06
2017-12-15T16:39:16.472Z,99203.70
2017-12-15T16:41:44.993Z,99206.25
2017-12-15T16:44:13.373Z,99208.84
2017-12-15T16:46:41.852Z,99205.81
2017-12-15T16:49:10.275Z,99206.48
2017-12-15T16:51:39.055Z,99209.98
2017-12-15T16:54:07.416Z,99211.60
2017-12-15T16:56:35.761Z,99207.84
2017-12-15T16:59:04.153Z,99215.63
2017-12-15T17:01:32.513Z,99213.55
2017-12-15T17:04:00.870Z,99218.65
2017-12-15T17:06:29.724Z,99215.09
2017-12-15T17:11:33.012Z,99216.34
2017-12-15T17:14:01.456Z,99218.23
2017-12-15T17:16:29.868Z,99211.94
2017-12-15T17:18:58.247Z,99213.80
2017-12-15T17:21:26.736Z,99205.78
2017-12-15T17:23:55.106Z,99215.73
2017-12-15T17:26:23.501Z,99217.06
2017-12-15T17:28:51.976Z,99222.33
2017-12-15T17:31:20.384Z,99222.70
2017-12-15T17:33:48.857Z,99224.02
2017-12-15T17:36:17.215Z,99220.05
2017-12-15T17:38:45.567Z,99220.37
2017-12-15T17:41:13.979Z,99223.46
2017-12-15T17:43:42.328Z,99220.95
2017-12-15T17:46:10.689Z,99223.14
2017-12-15T17:48:39.064Z,99232.75
2017-12-15T17:51:07.420Z,99230.56
2017-12-15T17:53:35.773Z,99230.81
2017-12-15T17:56:04.236Z,99232.00
2017-12-15T17:58:32.593Z,99240.44
2017-12-15T18:01:00.998Z,99245.50
2017-12-15T18:03:29.376Z,99244.61
2017-12-15T18:05:57.741Z,99238.37
2017-12-15T18:08:26.184Z,99239.72
2017-12-15T18:10:55.032Z,99247.69
2017-12-15T18:13:23.400Z,99247.09
2017-12-15T18:15:51.752Z,99248.91
2017-12-15T18:18:20.112Z,99247.97
2017-12-15T18:20:48.867Z,99253.14
2017-12-15T18:23:17.212Z,99249.38
2017-12-15T18:25:45.592Z,99248.62
2017-12-15T18:28:14.268Z,99250.50
2017-12-15T18:30:42.612Z,99256.03
2017-12-15T18:33:11.384Z,99248.56
2017-12-15T18:35:39.756Z,99250.42
2017-12-15T18:38:08.117Z,99255.20
2017-12-15T18:40:36.596Z,99261.11
2017-12-15T18:43:04.993Z,99260.16
2017-12-15T18:45:33.409Z,99268.14
2017-12-15T18:48:02.243Z,99268.81
2017-12-15T18:50:30.563Z,99269.51
2017-12-15T18:52:59.315Z,99274.73
2017-12-15T18:55:27.691Z,99273.98
2017-12-15T18:57:56.044Z,99275.25
2017-12-15T19:00:24.426Z,99280.91
2017-12-15T19:02:52.796Z,99285.61
2017-12-15T19:05:22.200Z,99287.97
2017-12-15T19:07:50.555Z,99292.75
2017-12-15T19:10:19.324Z,99291.79
2017-12-15T19:12:47.677Z,99291.78
2017-12-15T19:15:16.045Z,99294.73
2017-12-15T19:17:44.414Z,99293.84
2017-12-15T19:20:12.805Z,99300.48
2017-12-15T19:22:41.149Z,99303.62
2017-12-15T19:25:09.525Z,99302.65
2017-12-15T19:27:37.942Z,99310.38
2017-12-15T19:30:06.337Z,99307.35
2017-12-15T19:32:34.713Z,99317.84
2017-12-15T19:35:03.074Z,99319.91
2017-12-15T19:37:31.432Z,99324.27
2017-12-15T19:39:59.845Z,99324.28
2017-12-15T19:42:28.214Z,99328.10
2017-12-15T19:44:56.610Z,99331.09
2017-12-15T19:47:24.988Z,99334.62
2017-12-15T19:49:53.363Z,99334.61
2017-12-15T19:52:21.724Z,99341.55
2017-12-15T19:54:50.106Z,99335.36
2017-12-15T19:57:18.468Z,99340.22
2017-12-15T19:59:46.849Z,99342.16
2017-12-15T20:02:15.228Z,99349.05
2017-12-15T20:04:43.727Z,99351.21
2017-12-15T20:07:12.050Z,99342.54
2017-12-15T20:09:40.821Z,99351.20
2017-12-15T20:12:09.281Z,99354.33
2017-12-15T20:14:37.650Z,99349.58
2017-12-15T20:17:06.027Z,99348.80
2017-12-15T20:19:34.381Z,99346.66
2017-12-15T20:22:02.725Z,99348.03
2017-12-15T20:24:31.494Z,99345.27
2017-12-15T20:26:59.906Z,99345.56
2017-12-15T20:29:28.334Z,99351.69
2017-12-15T20:31:56.707Z,99348.62
2017-12-15T20:34:25.079Z,99343.38
2017-12-15T20:36:53.464Z,99342.88
2017-12-15T20:39:21.829Z,99346.23
2017-12-15T20:41:50.227Z,99353.57
2017-12-15T20:44:18.577Z,99352.75
2017-12-15T20:46:47.054Z,99353.20
2017-12-15T20:49:15.471Z,99364.36
2017-12-15T20:51:43.833Z,99367.30
2017-12-15T20:54:12.237Z,99371.81
2017-12-15T20:56:40.589Z,99374.80
2017-12-15T20:59:08.979Z,99369.48
2017-12-15T21:01:37.373Z,99371.01
2017-12-15T21:04:05.811Z,99368.73
2017-12-15T21:06:34.164Z,99375.19
2017-12-15T21:09:02.544Z,99369.40
2017-12-15T21:11:31.297Z,99375.48
2017-12-15T21:13:59.668Z,99367.66
2017-12-15T21:16:28.047Z,99367.74
2017-12-15T21:18:56.497Z,99372.09
2017-12-15T21:21:24.896Z,99375.13
2017-12-15T21:23:53.276Z,99371.55
2017-12-15T21:26:21.647Z,99371.63
2017-12-15T21:28:50.038Z,99367.81
2017-12-15T21:31:18.424Z,99374.25
2017-12-15T21:33:46.770Z,99374.26
2017-12-15T21:36:15.126Z,99377.47
2017-12-15T21:38:43.904Z,99383.59
2017-12-15T21:41:12.661Z,99388.72
2017-12-15T21:43:41.024Z,99393.89
2017-12-15T21:46:09.502Z,99395.65
2017-12-15T21:48:37.889Z,99394.24
2017-12-15T21:51:06.315Z,99392.00
2017-12-15T21:53:35.085Z,99391.22
2017-12-15T21:56:03.475Z,99400.70
2017-12-15T21:58:32.324Z,99399.39
2017-12-15T22:01:00.713Z,99402.41
2017-12-15T22:03:29.061Z,99405.50
2017-12-15T22:05:57.420Z,99410.34
2017-12-15T22:08:25.792Z,99413.87
2017-12-15T22:10:54.141Z,99419.45
2017-12-15T22:13:22.501Z,99417.70
2017-12-15T22:15:50.916Z,99418.58
2017-12-15T22:18:19.666Z,99417.27
2017-12-15T22:20:48.016Z,99423.34
2017-12-15T22:23:16.389Z,99423.80
2017-12-15T22:25:44.809Z,99429.44
2017-12-15T22:28:13.179Z,99428.16
2017-12-15T22:30:41.573Z,99429.87
2017-12-15T22:33:09.933Z,99433.55
2017-12-15T22:35:38.321Z,99433.02
2017-12-15T22:38:06.684Z,99430.30
2017-12-15T22:40:35.030Z,99429.47
2017-12-15T22:43:03.385Z,99434.33
2017-12-15T22:45:31.764Z,99444.22
2017-12-15T22:48:00.157Z,99441.62
2017-12-15T22:50:28.511Z,99445.09
2017-12-15T22:52:56.965Z,99444.23
2017-12-15T22:55:25.312Z,99442.88
2017-12-15T22:57:53.668Z,99440.56
2017-12-15T23:00:22.523Z,99439.70
2017-12-15T23:02:50.895Z,99447.62
2017-12-15T23:05:19.255Z,99442.87
2017-12-15T23:07:47.623Z,99445.09
2017-12-15T23:10:15.980Z,99453.44
2017-12-15T23:12:44.394Z,99456.75
2017-12-15T23:15:12.817Z,99458.95
2017-12-15T23:17:41.676Z,99451.94
2017-12-15T23:20:10.046Z,99455.00
2017-12-15T23:22:38.419Z,99457.05
2017-12-15T23:25:06.805Z,99458.03
2017-12-15T23:27:35.175Z,99452.84
2017-12-15T23:30:03.540Z,99458.37
2017-12-15T23:32:32.019Z,99454.89
2017-12-15T23:35:00.380Z,99453.14
2017-12-15T23:37:28.755Z,99450.12
2017-12-15T23:39:57.592Z,99455.34
2017-12-15T23:42:25.936Z,99458.91
2017-12-15T23:44:54.315Z,99461.52
2017-12-15T23:47:22.677Z,99462.30
2017-12-15T23:49:51.461Z,99460.13
2017-12-15T23:52:20.353Z,99461.45
2017-12-15T23:55:06.796Z,99456.28
2017-12-15T23:57:35.184Z,99460.25
